Louisville International Airport

Airport
ICAO code: 
KSDF
IATA Code: 
SDF
Summary
ICAO Region: 
NAM
Territory: 
Location: 
Louisville, Kentucky,
Serving: 
Louisville
Elevation: 
501 ft
Coordinates: 
Aerial View: 
38° 10' 27.248" N, 85° 44' 5.918" W
Airport LOS: 
Parallel Runway Operation
Airport WX: 
Cumulonimbus
Metar
Observation
KSDF 040556Z 00000KT 10SM CLR 11/07 A2999 RMK AO2 SLP153 T01110067 10183 20106 51009
Station
Louisville, Standiford Field
Date/Time
2021-12-04 05:56:00
Wind direction
Wind speed
00 kts
Lowest cloud amount
n/a
Temperature
11.1°C
Dew point
6.7°C
Humidity
74%
Weather condition
n/a

Description

Louisville International Airport is a public and military use airport centrally located in the city of Louisville in Jefferson County, Kentucky. Its IATA airport code, SDF, is based on the airport's former name, Standiford Field.

Climatology

Humid “subtropical” climate (Köppen climate classification Cfa) - characterized by hot, humid summers and cool winters. Significant amounts of precipitation occur in all seasons in most areas. Winter rainfall (and sometimes snowfall) is associated with large storms that the westerlies steer from west to east. Most summer rainfall occurs during thunderstorms.

Runways

Designator Length Width Surface Rops
11/29 2210 46 CON Yes/Yes
17L/35R 2615 46 CON Yes/Yes
17R/35L 3307 46 CON Yes/Yes
Airport map: 
Aerial View: 

SKYbrary Partners:

Safety knowledge contributed by: